Time;durP1;ratioP1;P1;durP2;ratioP2;P2;SDS_P1;SDS_P2;PMS_P1;PMS_P2;Temp;Humidity;BMP_temperature;BMP_pressure;BME280_temperature;BME280_humidity;BME280_pressure;Samples;Min_cycle;Max_cycle;Signal;HPM_P1;HPM_P2
2022/06/07 00:00:59;;;;;;;17.05;7.43;;;12.30;99.90;;;;;;5051093;28;20040;-56
2022/06/07 00:03:26;;;;;;;12.77;7.05;;;12.30;99.90;;;;;;5054731;28;20113;-57
2022/06/07 00:05:52;;;;;;;12.32;6.75;;;12.30;99.90;;;;;;5051540;28;20044;-57
2022/06/07 00:08:18;;;;;;;9.85;6.40;;;12.30;99.90;;;;;;5054383;28;20048;-56
2022/06/07 00:10:48;;;;;;;15.68;6.97;;;12.30;99.90;;;;;;5031229;28;20105;-57
2022/06/07 00:13:15;;;;;;;17.63;7.38;;;12.40;99.90;;;;;;5055218;28;20371;-58
2022/06/07 00:15:42;;;;;;;13.05;6.50;;;12.30;99.90;;;;;;5053760;28;20713;-57
2022/06/07 00:18:08;;;;;;;15.90;6.75;;;12.30;99.90;;;;;;5054920;28;20135;-58
2022/06/07 00:20:36;;;;;;;9.85;6.43;;;12.30;99.90;;;;;;5049366;28;20514;-57
2022/06/07 00:23:06;;;;;;;12.38;7.15;;;12.40;99.90;;;;;;5054108;28;20043;-58
2022/06/07 00:25:32;;;;;;;14.00;6.40;;;12.40;99.90;;;;;;5057738;28;20091;-59
2022/06/07 00:27:59;;;;;;;12.32;6.97;;;12.40;99.90;;;;;;5053159;28;20109;-56
2022/06/07 00:30:26;;;;;;;13.75;7.10;;;12.30;99.90;;;;;;5053486;28;20150;-57
2022/06/07 00:32:53;;;;;;;13.55;7.20;;;12.40;99.90;;;;;;5049788;28;20706;-57
2022/06/07 00:35:19;;;;;;;14.40;7.20;;;12.40;99.90;;;;;;5053221;28;20052;-58
2022/06/07 00:37:45;;;;;;;11.20;7.00;;;12.40;99.90;;;;;;5047143;28;20063;-59
2022/06/07 00:40:12;;;;;;;14.25;7.70;;;12.30;99.90;;;;;;5055351;28;20055;-57
2022/06/07 00:42:38;;;;;;;16.52;7.53;;;12.30;99.90;;;;;;5062910;28;20051;-57
2022/06/07 00:45:05;;;;;;;11.15;7.18;;;12.40;99.90;;;;;;5062769;28;20040;-58
2022/06/07 00:47:32;;;;;;;12.40;7.00;;;12.30;99.90;;;;;;5058359;28;20040;-57
2022/06/07 00:50:06;;;;;;;13.57;7.65;;;12.30;99.90;;;;;;5062652;28;20499;-57
2022/06/07 00:52:34;;;;;;;16.13;8.40;;;12.30;99.90;;;;;;5059276;28;22317;-57
2022/06/07 00:55:00;;;;;;;15.10;7.95;;;12.30;99.90;;;;;;5060166;28;20040;-58
2022/06/07 00:57:27;;;;;;;18.08;9.43;;;12.30;99.90;;;;;;5057086;28;20037;-58
2022/06/07 00:59:53;;;;;;;14.35;9.32;;;12.30;99.90;;;;;;5050917;28;20068;-57
2022/06/07 01:02:20;;;;;;;15.50;9.68;;;12.30;99.90;;;;;;5057050;28;20045;-58
2022/06/07 01:04:45;;;;;;;11.13;8.63;;;12.30;99.90;;;;;;5061346;28;20036;-58
2022/06/07 01:12:41;;;;;;;14.77;8.82;;;12.30;99.90;;;;;;5059680;28;20077;-58
2022/06/07 01:15:08;;;;;;;15.73;9.23;;;12.30;99.90;;;;;;5060024;28;20490;-58
2022/06/07 01:17:35;;;;;;;15.77;9.85;;;12.30;99.90;;;;;;5060149;28;20060;-58
2022/06/07 01:20:01;;;;;;;17.67;9.38;;;12.30;99.90;;;;;;5058430;28;20052;-58
2022/06/07 01:22:27;;;;;;;16.63;9.70;;;12.30;99.90;;;;;;5063030;28;20090;-58
2022/06/07 01:24:53;;;;;;;16.52;9.00;;;12.40;99.90;;;;;;5063293;28;20419;-58
2022/06/07 01:27:20;;;;;;;15.13;9.20;;;12.40;99.90;;;;;;5060032;28;20164;-57
2022/06/07 01:29:46;;;;;;;16.27;9.25;;;12.40;99.90;;;;;;5061135;28;20520;-57
2022/06/07 01:32:13;;;;;;;17.92;9.45;;;12.30;99.90;;;;;;5062380;28;20049;-58
2022/06/07 01:34:44;;;;;;;17.63;9.15;;;12.40;99.90;;;;;;5060225;28;20394;-58
2022/06/07 01:37:11;;;;;;;16.17;8.95;;;12.30;99.90;;;;;;5066940;28;20119;-57
2022/06/07 01:42:22;;;;;;;15.90;8.95;;;12.40;99.90;;;;;;5062320;28;20064;-56
2022/06/07 01:44:49;;;;;;;20.88;9.50;;;12.30;99.90;;;;;;5061100;28;20036;-56
2022/06/07 01:47:27;;;;;;;13.98;8.65;;;12.40;99.90;;;;;;5060579;28;20785;-57
2022/06/07 01:49:53;;;;;;;14.68;9.20;;;12.40;99.90;;;;;;5059065;28;20104;-57
2022/06/07 01:52:24;;;;;;;15.40;8.90;;;12.40;99.90;;;;;;5053051;28;20041;-57
2022/06/07 01:54:51;;;;;;;11.82;7.60;;;12.40;99.90;;;;;;5044970;28;20063;-58
2022/06/07 01:57:21;;;;;;;14.15;7.18;;;12.40;99.90;;;;;;5048294;28;20606;-57
2022/06/07 01:59:48;;;;;;;14.23;7.70;;;12.40;99.90;;;;;;5054606;28;20055;-58
2022/06/07 02:02:14;;;;;;;19.00;7.80;;;12.50;99.90;;;;;;5052810;28;20036;-58
2022/06/07 02:04:41;;;;;;;15.38;7.13;;;12.40;99.90;;;;;;5051672;28;20406;-57
2022/06/07 02:07:08;;;;;;;12.77;7.00;;;12.50;99.90;;;;;;5056061;28;20040;-57
2022/06/07 02:09:35;;;;;;;9.98;6.53;;;12.50;99.90;;;;;;5058715;28;20395;-58
2022/06/07 02:12:02;;;;;;;12.57;6.82;;;12.50;99.90;;;;;;5057635;28;20052;-57
2022/06/07 02:14:29;;;;;;;13.00;8.10;;;12.50;99.90;;;;;;5053843;28;20083;-58
2022/06/07 02:16:56;;;;;;;13.15;7.30;;;12.50;99.90;;;;;;5056405;28;20477;-58
2022/06/07 02:19:22;;;;;;;10.82;6.80;;;12.50;99.90;;;;;;5057833;28;20040;-58
2022/06/07 02:21:48;;;;;;;18.90;7.75;;;12.50;99.90;;;;;;5055233;28;20066;-57
2022/06/07 02:24:14;;;;;;;10.27;7.10;;;12.50;99.90;;;;;;5032474;28;20044;-58
2022/06/07 02:27:15;;;;;;;12.02;8.20;;;12.50;99.90;;;;;;5049807;28;20044;-57
2022/06/07 02:29:47;;;;;;;14.80;7.50;;;12.50;99.90;;;;;;5028014;28;20060;-58
2022/06/07 02:32:28;;;;;;;12.13;8.00;;;12.60;99.90;;;;;;5056964;28;20055;-57
2022/06/07 02:34:57;;;;;;;16.13;7.85;;;12.60;99.90;;;;;;5054813;28;20040;-58
2022/06/07 02:37:25;;;;;;;15.80;8.30;;;12.60;99.90;;;;;;5053886;28;20049;-58
2022/06/07 02:39:53;;;;;;;14.00;8.50;;;12.60;99.90;;;;;;5058609;28;20048;-58
2022/06/07 02:42:23;;;;;;;17.42;8.20;;;12.60;99.90;;;;;;5056881;28;20083;-58
2022/06/07 02:44:49;;;;;;;14.82;8.13;;;12.60;99.90;;;;;;5054071;28;20043;-58
2022/06/07 02:47:15;;;;;;;14.98;8.10;;;12.60;99.90;;;;;;5052171;28;20058;-57
2022/06/07 02:49:41;;;;;;;17.48;8.50;;;12.60;99.90;;;;;;5055900;28;20102;-57
2022/06/07 02:52:07;;;;;;;14.20;8.68;;;12.60;99.90;;;;;;5052895;28;20061;-57
2022/06/07 02:54:34;;;;;;;14.98;8.63;;;12.60;99.90;;;;;;5055118;28;20268;-59
2022/06/07 02:57:00;;;;;;;12.10;7.78;;;12.60;99.90;;;;;;5055906;28;20131;-58
2022/06/07 02:59:26;;;;;;;10.18;7.05;;;12.60;99.90;;;;;;5022097;28;20192;-57
2022/06/07 03:01:52;;;;;;;14.63;7.82;;;12.60;99.90;;;;;;5053508;28;20048;-59
2022/06/07 03:04:18;;;;;;;17.40;7.78;;;12.60;99.90;;;;;;5053093;28;20071;-58
2022/06/07 03:06:44;;;;;;;12.98;7.90;;;12.60;99.90;;;;;;5056866;28;20037;-58
2022/06/07 03:09:10;;;;;;;16.80;8.55;;;12.60;99.90;;;;;;5054206;28;20040;-58
2022/06/07 03:11:35;;;;;;;20.83;8.50;;;12.60;99.90;;;;;;5052095;28;20048;-58
2022/06/07 03:14:01;;;;;;;14.77;7.75;;;12.60;99.90;;;;;;5056088;28;20048;-58
2022/06/07 03:16:27;;;;;;;12.70;7.72;;;12.60;99.90;;;;;;5047645;28;20629;-57
2022/06/07 03:18:53;;;;;;;13.25;9.07;;;12.60;99.90;;;;;;5056663;28;20487;-58
2022/06/07 03:21:19;;;;;;;17.33;8.77;;;12.60;99.90;;;;;;5051212;28;20052;-57
2022/06/07 03:23:45;;;;;;;15.32;9.05;;;12.60;99.90;;;;;;5052829;28;20053;-58
2022/06/07 03:26:12;;;;;;;13.45;8.75;;;12.60;99.90;;;;;;5054649;28;20045;-58
2022/06/07 03:28:38;;;;;;;14.43;8.38;;;12.60;99.90;;;;;;5059946;28;20052;-59
2022/06/07 03:31:14;;;;;;;15.10;8.38;;;12.60;99.90;;;;;;5050691;28;20052;-57
2022/06/07 03:33:45;;;;;;;15.32;8.43;;;12.60;99.90;;;;;;5054041;28;20655;-58
2022/06/07 03:36:15;;;;;;;14.70;9.10;;;12.60;99.90;;;;;;5037664;28;20581;-58
2022/06/07 03:38:41;;;;;;;13.85;9.23;;;12.50;99.90;;;;;;5057408;28;20052;-58
2022/06/07 03:41:08;;;;;;;20.00;9.20;;;12.50;99.90;;;;;;5053201;28;20064;-58
2022/06/07 03:43:35;;;;;;;14.90;8.63;;;12.40;99.90;;;;;;5052476;28;20069;-59
2022/06/07 03:46:13;;;;;;;13.43;8.73;;;12.40;99.90;;;;;;5053268;28;20041;-58
2022/06/07 03:48:41;;;;;;;15.88;8.77;;;12.30;99.90;;;;;;5057697;28;20052;-57
2022/06/07 03:51:08;;;;;;;15.65;8.13;;;12.30;99.90;;;;;;5057287;28;20051;-56
2022/06/07 03:53:34;;;;;;;12.45;7.53;;;12.20;99.90;;;;;;5050585;28;20097;-57
2022/06/07 03:56:00;;;;;;;11.48;7.93;;;12.20;99.90;;;;;;5051547;28;20130;-57
2022/06/07 03:58:25;;;;;;;14.25;7.75;;;12.10;99.90;;;;;;5053001;28;20101;-57
2022/06/07 04:00:57;;;;;;;17.27;8.77;;;12.10;99.90;;;;;;5057245;28;20759;-58
2022/06/07 04:03:24;;;;;;;14.07;8.13;;;12.00;99.90;;;;;;5057561;28;20049;-58
2022/06/07 04:05:50;;;;;;;15.15;8.60;;;12.00;99.90;;;;;;5052328;28;20193;-57
2022/06/07 04:08:16;;;;;;;16.15;8.85;;;12.00;99.90;;;;;;5052641;28;20048;-58
2022/06/07 04:10:46;;;;;;;14.38;8.32;;;11.90;99.90;;;;;;5054255;28;20044;-59
2022/06/07 04:13:14;;;;;;;12.48;7.75;;;11.90;99.90;;;;;;5052267;28;20159;-57
2022/06/07 04:15:40;;;;;;;16.50;8.32;;;11.90;99.90;;;;;;5049840;28;20044;-58
2022/06/07 04:18:07;;;;;;;15.73;7.95;;;11.90;99.90;;;;;;5062635;28;20056;-57
2022/06/07 04:20:33;;;;;;;15.95;8.00;;;11.80;99.90;;;;;;5055981;28;20048;-57
2022/06/07 04:22:59;;;;;;;15.27;7.70;;;11.80;99.90;;;;;;5053122;28;20486;-56
2022/06/07 04:25:25;;;;;;;11.90;6.65;;;11.90;99.90;;;;;;5052616;28;20044;-57
2022/06/07 04:27:51;;;;;;;12.73;6.20;;;11.80;99.90;;;;;;5049977;28;20043;-57
2022/06/07 04:30:17;;;;;;;13.20;5.95;;;11.80;99.90;;;;;;5048855;28;20037;-56
2022/06/07 04:32:46;;;;;;;10.73;6.57;;;11.80;99.90;;;;;;5047217;28;20144;-58
2022/06/07 04:35:18;;;;;;;14.50;6.40;;;11.80;99.90;;;;;;5052011;28;20470;-57
2022/06/07 04:37:48;;;;;;;14.85;6.72;;;11.80;99.90;;;;;;5052060;28;20051;-56
2022/06/07 04:40:15;;;;;;;16.30;6.88;;;11.80;99.90;;;;;;5052449;28;20048;-57
2022/06/07 04:42:43;;;;;;;14.57;6.30;;;11.80;99.90;;;;;;5046361;28;20526;-58
2022/06/07 04:45:13;;;;;;;13.65;7.57;;;11.80;99.90;;;;;;5054497;28;20049;-58
2022/06/07 04:47:40;;;;;;;16.05;7.07;;;11.90;99.90;;;;;;5050250;28;20071;-57
2022/06/07 04:50:08;;;;;;;15.40;6.90;;;11.90;99.90;;;;;;5055554;28;20040;-58
2022/06/07 04:52:34;;;;;;;18.02;7.10;;;11.90;99.90;;;;;;5052717;28;20158;-57
2022/06/07 04:55:00;;;;;;;15.00;7.00;;;11.90;99.90;;;;;;5044467;28;20044;-57
2022/06/07 04:57:27;;;;;;;19.42;7.72;;;12.00;99.90;;;;;;5053504;28;20906;-57
2022/06/07 04:59:53;;;;;;;17.02;7.03;;;12.00;99.90;;;;;;5055391;28;20048;-58
2022/06/07 05:02:19;;;;;;;15.85;6.88;;;12.00;99.90;;;;;;5051027;28;20078;-57
2022/06/07 05:04:45;;;;;;;12.60;6.97;;;12.00;99.90;;;;;;5053813;28;20028;-57
2022/06/07 05:07:11;;;;;;;16.63;6.88;;;12.00;99.90;;;;;;5048164;28;20082;-56
2022/06/07 05:09:37;;;;;;;14.93;7.20;;;12.10;99.90;;;;;;5055936;28;20161;-57
2022/06/07 05:12:04;;;;;;;18.73;6.72;;;12.10;99.90;;;;;;5056378;28;20509;-58
2022/06/07 05:14:30;;;;;;;16.60;7.65;;;12.10;99.90;;;;;;5051599;28;20052;-57
2022/06/07 05:16:57;;;;;;;15.02;7.50;;;12.10;99.90;;;;;;5050333;28;20097;-57
2022/06/07 05:19:24;;;;;;;17.48;8.20;;;12.10;99.90;;;;;;5046495;28;20052;-58
2022/06/07 05:21:50;;;;;;;13.93;7.28;;;12.10;99.90;;;;;;5058383;28;20147;-57
2022/06/07 05:24:16;;;;;;;13.52;6.90;;;12.10;99.90;;;;;;5054874;28;20045;-57
2022/06/07 05:26:51;;;;;;;17.13;7.32;;;12.10;99.90;;;;;;5051301;28;20433;-57
2022/06/07 05:29:28;;;;;;;16.73;7.00;;;12.20;99.90;;;;;;5056560;28;20083;-57
2022/06/07 05:31:54;;;;;;;11.00;6.70;;;12.20;99.90;;;;;;5036277;28;20060;-58
2022/06/07 05:34:20;;;;;;;16.13;6.60;;;12.20;99.90;;;;;;5052706;28;20048;-56
2022/06/07 05:36:47;;;;;;;13.57;6.32;;;12.20;99.90;;;;;;5056405;28;20412;-56
2022/06/07 05:39:23;;;;;;;13.75;6.60;;;12.20;99.90;;;;;;5052475;28;20229;-57
2022/06/07 05:41:49;;;;;;;13.57;6.30;;;12.20;99.90;;;;;;5054486;28;20507;-58
2022/06/07 05:44:16;;;;;;;11.85;5.80;;;12.20;99.90;;;;;;5056478;28;20072;-57
2022/06/07 05:46:42;;;;;;;12.68;5.80;;;12.10;99.90;;;;;;5053633;28;20094;-57
2022/06/07 05:49:12;;;;;;;10.88;5.57;;;12.10;99.90;;;;;;5055124;28;20059;-57
2022/06/07 05:51:38;;;;;;;11.20;5.22;;;12.10;99.90;;;;;;5062583;28;20059;-56
2022/06/07 05:54:06;;;;;;;10.98;5.43;;;12.00;99.90;;;;;;5051300;28;20048;-57
2022/06/07 05:56:32;;;;;;;10.93;5.15;;;12.00;99.90;;;;;;5054936;28;20083;-58
2022/06/07 05:58:58;;;;;;;7.10;4.68;;;12.00;99.90;;;;;;5062374;28;20043;-57
2022/06/07 06:01:26;;;;;;;10.38;5.57;;;12.00;99.90;;;;;;5058535;28;20041;-57
2022/06/07 06:03:54;;;;;;;10.43;4.90;;;11.90;99.90;;;;;;5059641;28;20028;-57
2022/06/07 06:06:20;;;;;;;10.13;5.07;;;11.90;99.90;;;;;;5059391;28;20051;-58
2022/06/07 06:11:32;;;;;;;8.70;4.53;;;11.90;99.90;;;;;;5057389;28;20044;-56
2022/06/07 06:13:58;;;;;;;9.25;4.72;;;11.90;99.90;;;;;;5056983;28;21680;-56
2022/06/07 06:16:25;;;;;;;9.45;4.50;;;11.90;99.90;;;;;;5048662;28;20486;-54
2022/06/07 06:18:54;;;;;;;9.38;4.07;;;11.90;99.90;;;;;;5049880;28;20570;-55
2022/06/07 06:21:21;;;;;;;6.60;3.15;;;11.80;99.90;;;;;;5061389;28;20052;-56
2022/06/07 06:23:47;;;;;;;6.53;2.90;;;11.90;99.90;;;;;;5063962;28;20135;-56
2022/06/07 06:26:16;;;;;;;5.70;3.05;;;11.90;99.90;;;;;;5059648;28;20111;-55
2022/06/07 06:28:42;;;;;;;7.30;2.38;;;11.90;99.90;;;;;;5065499;28;20055;-56
2022/06/07 06:31:10;;;;;;;6.03;2.47;;;11.90;99.90;;;;;;5060820;28;20052;-55
2022/06/07 06:33:41;;;;;;;6.88;2.03;;;11.90;99.90;;;;;;5064620;28;20627;-55
2022/06/07 06:36:08;;;;;;;9.75;1.98;;;11.90;99.90;;;;;;5061609;28;20048;-55
2022/06/07 06:38:35;;;;;;;4.28;2.00;;;11.90;99.90;;;;;;5064776;28;20052;-56
2022/06/07 06:41:09;;;;;;;4.72;2.20;;;11.90;99.90;;;;;;5061568;28;20059;-55
2022/06/07 06:43:36;;;;;;;6.53;2.33;;;12.00;99.90;;;;;;5052608;28;20160;-56
2022/06/07 06:46:14;;;;;;;5.50;2.20;;;12.00;99.90;;;;;;5057079;28;20134;-56
2022/06/07 06:48:40;;;;;;;9.27;2.70;;;12.00;99.90;;;;;;5063515;28;20513;-55
2022/06/07 06:51:11;;;;;;;6.43;2.47;;;12.10;99.90;;;;;;5057889;28;20048;-55
2022/06/07 06:53:38;;;;;;;7.05;2.40;;;12.10;99.90;;;;;;5058264;28;20490;-55
2022/06/07 06:56:04;;;;;;;4.63;2.38;;;12.20;99.90;;;;;;5054789;28;20482;-55
2022/06/07 06:58:30;;;;;;;5.50;2.40;;;12.30;99.90;;;;;;5055094;28;20057;-52
2022/06/07 07:01:09;;;;;;;7.68;3.05;;;12.40;99.90;;;;;;5046663;28;20532;-56
2022/06/07 07:03:36;;;;;;;9.02;3.40;;;12.40;99.90;;;;;;5055364;28;20044;-57
2022/06/07 07:06:04;;;;;;;10.93;3.45;;;12.50;99.90;;;;;;5055672;28;20032;-55
2022/06/07 07:08:30;;;;;;;11.65;3.28;;;12.50;99.90;;;;;;5052162;28;20055;-56
2022/06/07 07:11:08;;;;;;;9.80;3.25;;;12.60;99.90;;;;;;5037145;28;20137;-56
2022/06/07 07:13:35;;;;;;;10.50;2.75;;;12.60;99.90;;;;;;5057678;28;20137;-55
2022/06/07 07:16:02;;;;;;;9.60;3.03;;;12.70;99.90;;;;;;5048784;28;20410;-55
2022/06/07 07:18:28;;;;;;;10.90;3.20;;;12.70;99.90;;;;;;5040922;28;20052;-55
2022/06/07 07:20:54;;;;;;;9.13;2.50;;;12.80;99.90;;;;;;5048919;28;20052;-55
2022/06/07 07:23:20;;;;;;;9.85;2.78;;;12.80;99.90;;;;;;5051041;28;20052;-55
2022/06/07 07:25:46;;;;;;;15.68;3.33;;;12.80;99.90;;;;;;5053348;28;20103;-56
2022/06/07 07:28:11;;;;;;;11.07;3.00;;;12.90;99.90;;;;;;5051177;28;20049;-57
2022/06/07 07:30:37;;;;;;;13.20;2.88;;;12.90;99.90;;;;;;5055812;28;20052;-56
2022/06/07 07:33:03;;;;;;;11.20;3.13;;;13.00;99.90;;;;;;5053406;28;20044;-54
2022/06/07 07:35:30;;;;;;;12.65;3.00;;;13.10;99.90;;;;;;5049048;28;20402;-55
2022/06/07 07:37:57;;;;;;;14.57;2.78;;;13.10;99.90;;;;;;5030763;28;20040;-56
2022/06/07 07:40:23;;;;;;;11.07;2.83;;;13.20;99.90;;;;;;5052314;28;20134;-56
2022/06/07 07:42:49;;;;;;;8.15;2.50;;;13.20;99.90;;;;;;5072999;28;20051;-57
2022/06/07 07:45:15;;;;;;;14.23;2.95;;;13.20;99.90;;;;;;5054473;28;20037;-56
2022/06/07 07:47:41;;;;;;;12.77;3.15;;;13.20;99.90;;;;;;5057492;28;20052;-54
2022/06/07 07:50:08;;;;;;;9.20;2.50;;;13.20;99.90;;;;;;5050655;28;20537;-56
2022/06/07 07:52:33;;;;;;;11.43;2.47;;;13.20;99.90;;;;;;5055416;28;20041;-55
2022/06/07 07:54:59;;;;;;;10.30;2.28;;;13.20;99.90;;;;;;5051616;28;20134;-56
2022/06/07 07:57:25;;;;;;;7.90;2.78;;;13.10;99.90;;;;;;5053869;28;20139;-55
2022/06/07 07:59:51;;;;;;;13.75;2.60;;;13.10;99.90;;;;;;5053299;28;20052;-55
2022/06/07 08:02:21;;;;;;;9.23;2.25;;;13.10;99.90;;;;;;5054076;28;20137;-57
2022/06/07 08:04:46;;;;;;;9.82;2.00;;;13.10;99.90;;;;;;5049824;28;20102;-56
2022/06/07 08:07:13;;;;;;;10.18;2.25;;;13.10;99.90;;;;;;5051005;28;20432;-56
2022/06/07 08:09:39;;;;;;;10.23;2.20;;;13.10;99.90;;;;;;5055679;28;20051;-56
2022/06/07 08:12:06;;;;;;;9.45;1.73;;;13.10;99.90;;;;;;5054678;28;20040;-55
2022/06/07 08:14:33;;;;;;;9.52;1.90;;;13.10;99.90;;;;;;5053320;28;20058;-55
2022/06/07 08:16:59;;;;;;;8.30;1.75;;;13.10;99.90;;;;;;5054429;28;20037;-54
2022/06/07 08:19:26;;;;;;;8.32;2.20;;;13.10;99.90;;;;;;5046348;28;20060;-55
2022/06/07 08:21:52;;;;;;;10.57;2.03;;;13.20;99.90;;;;;;5055545;28;20048;-56
2022/06/07 08:24:18;;;;;;;8.60;2.15;;;13.20;99.90;;;;;;5053893;28;20371;-54
2022/06/07 08:26:46;;;;;;;13.30;2.55;;;13.30;99.90;;;;;;5047664;28;20113;-55
2022/06/07 08:29:12;;;;;;;9.57;2.30;;;13.40;99.90;;;;;;5053873;28;20900;-55
2022/06/07 08:31:38;;;;;;;7.25;1.90;;;13.50;99.90;;;;;;5049716;28;20052;-55
2022/06/07 08:39:35;;;;;;;8.57;2.10;;;13.80;99.90;;;;;;5051987;28;20410;-56
2022/06/07 08:42:13;;;;;;;12.20;2.28;;;14.00;99.90;;;;;;5054390;28;20172;-55
2022/06/07 08:44:54;;;;;;;10.38;2.22;;;14.10;99.90;;;;;;5053517;28;20045;-55
2022/06/07 08:47:53;;;;;;;9.82;1.73;;;14.20;99.90;;;;;;5056177;28;20049;-55
2022/06/07 08:50:25;;;;;;;8.50;1.80;;;14.30;99.90;;;;;;5052012;28;20040;-56
2022/06/07 08:52:53;;;;;;;;;;;14.30;99.90;;;;;;5051924;28;20119;-55
2022/06/07 08:55:42;;;;;;;8.18;1.90;;;14.30;99.90;;;;;;5051903;28;19931;-55
2022/06/07 08:58:18;;;;;;;7.82;1.67;;;14.40;99.90;;;;;;5054649;28;20143;-55
2022/06/07 09:00:53;;;;;;;6.15;1.52;;;14.40;99.90;;;;;;5059866;28;20040;-56
2022/06/07 09:03:28;;;;;;;9.43;2.10;;;14.50;99.90;;;;;;5056599;28;20123;-54
2022/06/07 09:06:01;;;;;;;8.18;1.90;;;14.50;99.90;;;;;;5079418;28;20118;-54
2022/06/07 09:08:38;;;;;;;8.50;1.75;;;14.50;99.90;;;;;;5056393;28;20048;-56
2022/06/07 09:13:54;;;;;;;5.90;1.55;;;14.40;99.90;;;;;;5059758;28;20051;-55
2022/06/07 09:16:20;;;;;;;9.75;1.85;;;14.40;99.90;;;;;;5056049;28;20045;-55
2022/06/07 09:18:49;;;;;;;6.72;1.75;;;14.40;99.90;;;;;;5056245;28;20044;-55
2022/06/07 09:21:29;;;;;;;8.05;1.40;;;14.30;99.90;;;;;;5051034;28;20052;-55
2022/06/07 09:23:57;;;;;;;6.45;1.48;;;14.30;99.90;;;;;;5059758;28;20425;-56
2022/06/07 09:26:36;;;;;;;8.40;1.70;;;14.20;99.90;;;;;;5048891;28;20045;-56
2022/06/07 09:29:15;;;;;;;9.55;2.17;;;14.10;99.90;;;;;;5052062;28;20040;-57
2022/06/07 09:31:43;;;;;;;11.13;2.20;;;14.00;99.90;;;;;;5060124;28;20040;-55
2022/06/07 09:34:37;;;;;;;6.05;2.10;;;13.90;99.90;;;;;;5061221;28;20048;-56
2022/06/07 09:37:13;;;;;;;7.97;1.75;;;13.80;99.90;;;;;;5057550;28;20476;-56
2022/06/07 09:39:41;;;;;;;11.25;2.20;;;13.80;99.90;;;;;;5058159;28;20087;-57
2022/06/07 09:42:25;;;;;;;13.38;1.60;;;13.80;99.90;;;;;;5057426;28;20067;-55
2022/06/07 09:44:55;;;;;;;8.75;1.70;;;13.80;99.90;;;;;;5059630;28;20056;-56
2022/06/07 09:47:26;;;;;;;7.00;1.65;;;13.80;99.90;;;;;;5053110;28;20051;-56
2022/06/07 09:50:10;;;;;;;9.60;2.05;;;13.80;99.90;;;;;;5049028;28;20056;-55
2022/06/07 09:52:47;;;;;;;5.53;1.52;;;13.90;99.90;;;;;;5056552;28;20460;-56
2022/06/07 09:55:41;;;;;;;10.77;2.38;;;14.00;99.90;;;;;;5052609;28;20037;-55
2022/06/07 09:58:16;;;;;;;8.48;2.03;;;14.20;99.90;;;;;;5054704;28;20063;-56
2022/06/07 10:00:53;;;;;;;15.07;2.40;;;14.30;99.90;;;;;;5052294;28;20441;-56
2022/06/07 10:03:30;;;;;;;7.72;1.90;;;14.50;99.90;;;;;;5035891;28;20044;-55
2022/06/07 10:06:03;;;;;;;9.23;1.90;;;14.60;99.90;;;;;;5052354;28;20045;-55
2022/06/07 10:08:47;;;;;;;;;;;14.70;99.90;;;;;;5056270;28;20082;-56
2022/06/07 10:11:13;;;;;;;9.27;2.15;;;14.70;99.90;;;;;;5054198;28;19920;-55
2022/06/07 10:13:57;;;;;;;9.68;1.88;;;14.60;99.90;;;;;;5052707;28;20983;-56
2022/06/07 10:16:35;;;;;;;6.35;1.60;;;14.60;99.90;;;;;;5032909;28;20615;-55
2022/06/07 10:19:07;;;;;;;14.45;2.35;;;14.50;99.90;;;;;;5057764;28;20091;-56
2022/06/07 10:22:04;;;;;;;6.40;1.70;;;14.50;99.90;;;;;;5057502;28;20159;-55
2022/06/07 10:24:59;;;;;;;10.75;2.33;;;14.50;99.90;;;;;;5055262;28;20079;-56
2022/06/07 10:28:02;;;;;;;6.65;2.20;;;14.70;99.90;;;;;;5056281;28;20490;-56
2022/06/07 10:30:40;;;;;;;8.73;2.08;;;14.70;99.90;;;;;;5028513;28;20056;-56
2022/06/07 10:33:39;;;;;;;7.47;1.48;;;14.60;99.90;;;;;;5048682;28;20048;-56
2022/06/07 10:36:29;;;;;;;7.78;1.80;;;14.60;99.90;;;;;;5054461;28;20040;-56
2022/06/07 10:39:01;;;;;;;9.85;1.98;;;14.50;99.90;;;;;;5055205;28;20071;-56
2022/06/07 10:41:54;;;;;;;10.40;2.00;;;14.50;99.90;;;;;;5059988;28;20803;-56
2022/06/07 10:44:45;;;;;;;7.40;1.90;;;14.40;99.90;;;;;;5062138;28;20487;-56
2022/06/07 10:47:24;;;;;;;7.72;1.80;;;14.40;99.90;;;;;;5063543;28;20457;-57
2022/06/07 10:49:57;;;;;;;7.22;1.88;;;14.40;99.90;;;;;;5064988;28;20087;-56
2022/06/07 10:52:51;;;;;;;4.88;1.92;;;14.40;99.90;;;;;;5065690;28;20036;-56
2022/06/07 10:55:33;;;;;;;5.90;1.63;;;14.40;99.90;;;;;;5063149;28;20386;-56
2022/06/07 10:58:28;;;;;;;9.38;1.90;;;14.40;99.90;;;;;;5061709;28;20102;-57
2022/06/07 11:01:05;;;;;;;7.00;1.98;;;14.40;99.90;;;;;;5051040;28;20102;-56
2022/06/07 11:04:01;;;;;;;9.57;2.00;;;14.40;99.90;;;;;;5054279;28;20415;-56
2022/06/07 11:09:37;;;;;;;8.90;2.10;;;14.40;99.90;;;;;;5056643;28;20068;-56
2022/06/07 11:12:16;;;;;;;8.70;2.03;;;14.50;99.90;;;;;;5062150;28;20060;-56
2022/06/07 11:15:05;;;;;;;6.40;1.60;;;14.60;99.90;;;;;;5056008;28;20087;-56
2022/06/07 11:17:44;;;;;;;11.02;1.70;;;14.80;99.90;;;;;;5041469;28;20126;-57
2022/06/07 11:20:21;;;;;;;8.07;1.60;;;14.90;99.90;;;;;;5055612;28;20517;-55
2022/06/07 11:23:33;;;;;;;6.90;2.00;;;15.10;99.90;;;;;;5055120;28;20056;-56
2022/06/07 11:26:17;;;;;;;4.10;1.60;;;15.10;99.90;;;;;;5025977;28;20513;-56
2022/06/07 11:28:49;;;;;;;6.03;1.85;;;15.30;99.90;;;;;;5056217;28;20048;-56
2022/06/07 11:31:15;;;;;;;3.42;1.42;;;15.30;99.90;;;;;;5054652;28;20100;-56
2022/06/07 11:33:46;;;;;;;4.30;1.40;;;15.30;99.90;;;;;;5057470;28;20483;-55
2022/06/07 11:36:12;;;;;;;4.45;1.13;;;15.30;99.90;;;;;;5055600;28;20107;-56
2022/06/07 11:38:53;;;;;;;4.97;1.50;;;15.40;99.90;;;;;;5045512;28;20494;-57
2022/06/07 11:41:37;;;;;;;4.30;1.35;;;15.50;99.90;;;;;;5051182;28;20111;-56
2022/06/07 11:44:11;;;;;;;3.58;1.42;;;15.60;99.90;;;;;;5054481;28;20123;-57
2022/06/07 11:46:43;;;;;;;5.05;1.30;;;15.60;99.90;;;;;;5050949;28;20056;-56
2022/06/07 11:49:19;;;;;;;7.05;1.55;;;15.60;99.90;;;;;;5053777;28;20048;-56
2022/06/07 11:52:14;;;;;;;6.47;1.70;;;15.70;99.90;;;;;;5065634;28;20060;-57
2022/06/07 11:54:43;;;;;;;7.38;1.73;;;15.70;99.90;;;;;;4979035;28;21242;-56
2022/06/07 11:57:48;;;;;;;4.38;1.55;;;15.70;99.90;;;;;;5054125;28;20394;-56
2022/06/07 12:00:20;;;;;;;6.13;1.45;;;15.70;99.90;;;;;;5050709;28;21166;-57
2022/06/07 12:03:00;;;;;;;4.78;1.50;;;15.70;99.90;;;;;;5049565;28;20048;-57
2022/06/07 12:05:40;;;;;;;5.85;1.52;;;15.70;99.90;;;;;;5052704;28;20063;-56
2022/06/07 12:08:35;;;;;;;4.60;1.40;;;15.70;99.90;;;;;;5054559;28;20051;-56
2022/06/07 12:11:22;;;;;;;6.65;1.55;;;15.70;99.90;;;;;;5052798;28;20135;-57
2022/06/07 12:13:57;;;;;;;4.78;1.42;;;15.60;99.90;;;;;;5050448;28;20128;-55
2022/06/07 12:16:35;;;;;;;3.63;1.33;;;15.60;99.90;;;;;;5056281;28;20175;-56
2022/06/07 12:19:04;;;;;;;7.07;1.63;;;15.60;99.90;;;;;;5053097;28;20124;-56
2022/06/07 12:21:40;;;;;;;4.80;1.23;;;15.60;99.90;;;;;;5055903;28;20948;-58
2022/06/07 12:24:17;;;;;;;5.68;1.40;;;15.70;99.90;;;;;;5046263;28;20048;-58
2022/06/07 12:26:46;;;;;;;4.50;1.20;;;15.90;99.90;;;;;;5053337;28;20076;-59
2022/06/07 12:29:21;;;;;;;5.28;1.30;;;16.00;99.90;;;;;;5046699;28;20048;-58
2022/06/07 12:31:57;;;;;;;7.13;1.40;;;16.00;99.90;;;;;;5050921;28;20043;-57
2022/06/07 12:34:26;;;;;;;9.20;1.55;;;16.00;99.90;;;;;;5054565;28;20119;-58
2022/06/07 12:36:54;;;;;;;7.50;1.75;;;16.10;99.90;;;;;;5048878;28;20048;-57
2022/06/07 12:39:20;;;;;;;7.28;1.73;;;16.10;99.90;;;;;;5054760;28;20048;-56
2022/06/07 12:41:53;;;;;;;6.75;1.75;;;16.10;99.90;;;;;;5054013;28;20107;-60
2022/06/07 12:44:26;;;;;;;5.85;1.70;;;16.20;99.90;;;;;;5050315;28;20157;-60
2022/06/07 12:46:52;;;;;;;4.00;1.50;;;16.30;99.90;;;;;;5049175;28;20045;-60
2022/06/07 12:49:21;;;;;;;8.85;1.90;;;16.30;99.90;;;;;;5054229;28;20044;-60
2022/06/07 12:52:15;;;;;;;5.20;1.42;;;16.30;99.90;;;;;;5051615;28;20452;-60
2022/06/07 12:54:47;;;;;;;7.07;1.50;;;16.40;99.90;;;;;;5051137;28;20044;-60
2022/06/07 12:57:35;;;;;;;13.77;2.17;;;16.60;99.90;;;;;;5050581;28;20130;-59
2022/06/07 13:00:13;;;;;;;8.90;1.70;;;17.00;99.90;;;;;;5054132;28;20175;-60
2022/06/07 13:02:51;;;;;;;8.70;1.52;;;17.40;99.90;;;;;;5052364;28;20041;-60
2022/06/07 13:05:23;;;;;;;8.07;1.77;;;17.90;99.90;;;;;;5035278;28;20717;-59
2022/06/07 13:07:55;;;;;;;9.13;1.83;;;18.20;99.90;;;;;;5053648;28;20109;-60
2022/06/07 13:10:33;;;;;;;5.57;1.30;;;18.30;99.90;;;;;;5058906;28;20075;-60
2022/06/07 13:13:02;;;;;;;5.85;1.35;;;18.30;99.90;;;;;;5057681;28;20044;-60
2022/06/07 13:15:31;;;;;;;4.97;1.30;;;18.20;99.90;;;;;;5057164;28;20064;-60
2022/06/07 13:18:01;;;;;;;4.55;1.30;;;18.20;99.90;;;;;;5052912;28;20506;-60
2022/06/07 13:20:34;;;;;;;6.50;1.45;;;18.20;99.90;;;;;;5053770;28;20048;-60
2022/06/07 13:23:00;;;;;;;4.15;1.17;;;18.30;99.80;;;;;;5049465;28;21048;-60